Airfield :
LOGIN :

Register | Disclaimer

   EN    FR    IT 

 










Legend :    VFR   Marginal VFR   IFR   Intensive IFR   Very Intensive IFR
Visi :
Ceiling :
>= 8 km
>= 3000ft
5 to 8 km
1000 to 3000 ft
1500m to 5 km
500 to 1000 ft
800 to 1500m
200 to 500 ft
< 800m
< 200 ft
Symbols :   Thunderstorms  Fog  Heavy snow  Heavy precipitations  Wind > 20 kt
SIGMETs :     Misc.  Thunderstorms  Icing  Turbulence  Mountain Waves  Volcanic Ashes







- Airport Elevation : 755 ft
- IATA code : KSC


LZKZ - Kosice

CURRENT METAR :
  • 151500Z 13005KT CAVOK 19/02 Q1023 NOSIG

EXPIRED METARs :
  • 151430Z 16005KT CAVOK 21/M00 Q1023 NOSIG
  • 151400Z 13004KT 100V160 CAVOK 21/01 Q1023 NOSIG
  • 151330Z 15005KT 120V180 CAVOK 22/01 Q1023 NOSIG
  • 151300Z 17003KT 130V230 CAVOK 22/01 Q1023 NOSIG
  • 151230Z 16005KT 110V210 CAVOK 21/02 Q1024 NOSIG

TAF TAF LZKZ
Valid from the 15 at 12:00 until the 16 at 12:00 UTC


151100Z 1512/1612 15008KT CAVOK
BECMG 1517/1519 05004KT
BECMG 1609/1611 20007KT
No reported NOTAMs for that airfield.



MET'MAP, your aeronautical weather chart ! - Copyright ORBIFLY December 2007 - Disclaimer

ORBIFLY MET'MAP TEAM :

Programming & Development : Alexandra Zaïnal
Concept & Development : Baudouin d'Aumeries
Co-Development & Prog : Marc-Olivier Méhu
Technical & hardware support : Manuel Goepfert

Contact : metmap@orbifly.com




SOURCES & CREDITS :

   NOAA